Time;durP1;ratioP1;P1;durP2;ratioP2;P2;SDS_P1;SDS_P2;PMS_P1;PMS_P2;Temp;Humidity;BMP_temperature;BMP_pressure;BME280_temperature;BME280_humidity;BME280_pressure;Samples;Min_cycle;Max_cycle;Signal;HPM_P1;HPM_P2
2022/10/04 00:02:22;;;;;;;;;;;;;;;;;;5050774;28;19913;-72
2022/10/04 00:04:47;;;;;;;;;;;;;;;;;;5050730;28;19917;-72
2022/10/04 00:07:12;;;;;;;;;;;;;;;;;;5048528;28;19924;-72
2022/10/04 00:09:37;;;;;;;;;;;;;;;;;;5051927;28;19979;-72
2022/10/04 00:12:03;;;;;;;;;;;;;;;;;;5051110;28;19913;-72
2022/10/04 00:14:28;;;;;;;;;;;;;;;;;;5051734;28;19913;-72
2022/10/04 00:16:53;;;;;;;;;;;;;;;;;;5050560;28;20357;-72
2022/10/04 00:19:18;;;;;;;;;;;;;;;;;;5047373;28;20403;-72
2022/10/04 00:21:43;;;;;;;;;;;;;;;;;;5041171;28;19913;-72
2022/10/04 00:24:08;;;;;;;;;;;;;;;;;;5059616;28;19959;-72
2022/10/04 00:26:33;;;;;;;;;;;;;;;;;;5055063;28;19982;-72
2022/10/04 00:28:58;;;;;;;;;;;;;;;;;;5055802;28;19908;-72
2022/10/04 00:31:24;;;;;;;;;;;;;;;;;;5055358;28;19925;-72
2022/10/04 00:33:49;;;;;;;;;;;;;;;;;;5055463;28;19959;-72
2022/10/04 00:36:14;;;;;;;;;;;;;;;;;;5055500;28;19920;-72
2022/10/04 00:38:39;;;;;;;;;;;;;;;;;;5055597;28;19912;-72
2022/10/04 00:41:05;;;;;;;;;;;;;;;;;;5053940;28;19928;-72
2022/10/04 00:43:30;;;;;;;;;;;;;;;;;;5041221;28;19913;-72
2022/10/04 00:45:55;;;;;;;;;;;;;;;;;;5054557;28;19913;-72
2022/10/04 00:48:20;;;;;;;;;;;;;;;;;;5044440;28;19909;-72
2022/10/04 00:50:46;;;;;;;;;;;;;;;;;;5041468;28;20380;-72
2022/10/04 00:53:11;;;;;;;;;;;;;;;;;;5055209;28;19954;-72
2022/10/04 00:55:36;;;;;;;;;;;;;;;;;;5055508;28;19909;-72
2022/10/04 00:58:01;;;;;;;;;;;;;;;;;;5054423;28;19921;-72
2022/10/04 01:00:26;;;;;;;;;;;;;;;;;;5047039;28;19913;-72
2022/10/04 01:02:51;;;;;;;;;;;;;;;;;;5052707;28;19920;-72
2022/10/04 01:05:16;;;;;;;;;;;;;;;;;;5126619;22;20315;-67
2022/10/04 01:07:42;;;;;;;;;;;;;;;;;;5057690;28;19917;-67
2022/10/04 01:10:07;;;;;;;;;;;;;;;;;;5066234;28;20030;-67
2022/10/04 01:12:32;;;;;;;;;;;;;;;;;;5066860;28;19962;-68
2022/10/04 01:14:57;;;;;;;;;;;;;;;;;;5111253;22;19936;-71
2022/10/04 01:20:06;;;;;;;;;;;;;;;;;;5012839;28;19924;-71
2022/10/04 01:22:31;;;;;;;;;;;;;;;;;;5014064;28;19922;-71
2022/10/04 01:24:57;;;;;;;;;;;;;;;;;;5014215;28;20015;-71
2022/10/04 01:27:22;;;;;;;;;;;;;;;;;;5014325;28;19964;-71
2022/10/04 01:29:47;;;;;;;;;;;;;;;;;;5014462;28;20349;-71
2022/10/04 01:32:12;;;;;;;;;;;;;;;;;;5012520;28;20376;-73
2022/10/04 01:34:37;;;;;;;;;;;;;;;;;;5012569;28;20047;-73
2022/10/04 01:37:02;;;;;;;;;;;;;;;;;;5016977;28;19961;-73
2022/10/04 01:39:28;;;;;;;;;;;;;;;;;;5033114;28;19913;-73
2022/10/04 01:41:53;;;;;;;;;;;;;;;;;;5015698;28;19920;-73
2022/10/04 01:44:19;;;;;;;;;;;;;;;;;;5012811;28;19920;-73
2022/10/04 01:46:44;;;;;;;;;;;;;;;;;;5013671;28;19910;-71
2022/10/04 01:49:09;;;;;;;;;;;;;;;;;;5014737;28;20273;-71
2022/10/04 01:51:35;;;;;;;;;;;;;;;;;;5013372;28;19913;-71
2022/10/04 01:54:00;;;;;;;;;;;;;;;;;;5013708;28;19961;-71
2022/10/04 01:56:25;;;;;;;;;;;;;;;;;;5014667;28;20023;-71
2022/10/04 01:58:50;;;;;;;;;;;;;;;;;;5013738;28;19917;-71
2022/10/04 02:01:15;;;;;;;;;;;;;;;;;;5013592;28;19944;-71
2022/10/04 02:03:41;;;;;;;;;;;;;;;;;;5012617;28;20361;-71
2022/10/04 02:06:06;;;;;;;;;;;;;;;;;;5013709;28;19914;-71
2022/10/04 02:08:31;;;;;;;;;;;;;;;;;;5013649;28;20024;-71
2022/10/04 02:10:56;;;;;;;;;;;;;;;;;;5013059;28;19971;-71
2022/10/04 02:13:21;;;;;;;;;;;;;;;;;;5016420;28;19952;-71
2022/10/04 02:15:46;;;;;;;;;;;;;;;;;;5013204;28;20016;-71
2022/10/04 02:18:11;;;;;;;;;;;;;;;;;;5013330;28;19983;-71
2022/10/04 02:20:36;;;;;;;;;;;;;;;;;;5013273;28;19934;-71
2022/10/04 02:23:02;;;;;;;;;;;;;;;;;;5013181;28;19917;-71
2022/10/04 02:25:27;;;;;;;;;;;;;;;;;;5013624;28;20365;-71
2022/10/04 02:27:55;;;;;;;;;;;;;;;;;;5012515;28;19921;-71
2022/10/04 02:30:20;;;;;;;;;;;;;;;;;;5013085;28;19913;-71
2022/10/04 02:32:58;;;;;;;;;;;;;;;;;;5013221;28;19925;-71
2022/10/04 02:35:23;;;;;;;;;;;;;;;;;;5013373;28;19925;-71
2022/10/04 02:37:48;;;;;;;;;;;;;;;;;;5017660;28;20369;-71
2022/10/04 02:40:14;;;;;;;;;;;;;;;;;;5012819;28;19917;-72
2022/10/04 02:42:39;;;;;;;;;;;;;;;;;;5024856;28;19917;-72
2022/10/04 02:45:04;;;;;;;;;;;;;;;;;;5013643;28;19909;-72
2022/10/04 02:47:30;;;;;;;;;;;;;;;;;;5013344;28;19960;-72
2022/10/04 02:49:55;;;;;;;;;;;;;;;;;;5012795;28;19909;-72
2022/10/04 02:52:20;;;;;;;;;;;;;;;;;;5015014;28;19914;-72
2022/10/04 02:54:45;;;;;;;;;;;;;;;;;;5016209;28;20008;-72
2022/10/04 02:57:10;;;;;;;;;;;;;;;;;;5013883;28;19932;-72
2022/10/04 02:59:35;;;;;;;;;;;;;;;;;;5017679;28;19917;-72
2022/10/04 03:02:00;;;;;;;;;;;;;;;;;;5026278;28;19913;-72
2022/10/04 03:04:25;;;;;;;;;;;;;;;;;;5012836;28;19913;-72
2022/10/04 03:06:50;;;;;;;;;;;;;;;;;;5013317;28;19929;-72
2022/10/04 03:09:16;;;;;;;;;;;;;;;;;;5012806;28;20012;-72
2022/10/04 03:11:41;;;;;;;;;;;;;;;;;;5016021;28;20296;-71
2022/10/04 03:14:06;;;;;;;;;;;;;;;;;;5011903;28;20261;-71
2022/10/04 03:16:31;;;;;;;;;;;;;;;;;;5013343;28;19921;-72
2022/10/04 03:18:57;;;;;;;;;;;;;;;;;;5012181;28;19917;-72
2022/10/04 03:21:22;;;;;;;;;;;;;;;;;;5011052;28;19921;-72
2022/10/04 03:23:47;;;;;;;;;;;;;;;;;;5012240;28;19916;-72
2022/10/04 03:26:12;;;;;;;;;;;;;;;;;;5012996;28;19913;-72
2022/10/04 03:28:37;;;;;;;;;;;;;;;;;;5011945;28;20000;-72
2022/10/04 03:31:02;;;;;;;;;;;;;;;;;;5012148;28;19918;-72
2022/10/04 03:33:28;;;;;;;;;;;;;;;;;;5013368;28;19916;-72
2022/10/04 03:35:53;;;;;;;;;;;;;;;;;;5011845;28;19918;-71
2022/10/04 03:38:18;;;;;;;;;;;;;;;;;;5012238;28;19988;-71
2022/10/04 03:40:44;;;;;;;;;;;;;;;;;;5012396;28;19920;-71
2022/10/04 03:43:11;;;;;;;;;;;;;;;;;;5030478;28;19913;-72
2022/10/04 03:45:36;;;;;;;;;;;;;;;;;;5020185;28;19913;-72
2022/10/04 03:48:01;;;;;;;;;;;;;;;;;;5011909;28;19933;-72
2022/10/04 03:50:26;;;;;;;;;;;;;;;;;;5027425;28;19909;-72
2022/10/04 03:52:52;;;;;;;;;;;;;;;;;;5017711;28;19921;-72
2022/10/04 03:55:18;;;;;;;;;;;;;;;;;;5011977;28;20008;-72
2022/10/04 03:57:43;;;;;;;;;;;;;;;;;;5014098;28;20028;-72
2022/10/04 04:00:08;;;;;;;;;;;;;;;;;;5014799;28;19913;-72
2022/10/04 04:02:33;;;;;;;;;;;;;;;;;;5024537;28;19921;-72
2022/10/04 04:04:58;;;;;;;;;;;;;;;;;;5016907;28;19909;-72
2022/10/04 04:07:23;;;;;;;;;;;;;;;;;;5015525;28;19929;-71
2022/10/04 04:09:49;;;;;;;;;;;;;;;;;;5018969;28;19956;-72
2022/10/04 04:12:14;;;;;;;;;;;;;;;;;;5015972;28;19921;-72
2022/10/04 04:14:40;;;;;;;;;;;;;;;;;;5015330;28;20387;-72
2022/10/04 04:17:05;;;;;;;;;;;;;;;;;;5020907;28;19932;-72
2022/10/04 04:19:30;;;;;;;;;;;;;;;;;;5015896;28;19917;-72
2022/10/04 04:21:55;;;;;;;;;;;;;;;;;;5016504;28;19914;-72
2022/10/04 04:24:22;;;;;;;;;;;;;;;;;;5032912;28;19963;-73
2022/10/04 04:26:47;;;;;;;;;;;;;;;;;;5016036;28;19913;-73
2022/10/04 04:29:13;;;;;;;;;;;;;;;;;;5015302;28;20000;-74
2022/10/04 04:31:38;;;;;;;;;;;;;;;;;;5015335;28;20385;-74
2022/10/04 04:34:03;;;;;;;;;;;;;;;;;;5015532;28;19971;-74
2022/10/04 04:36:28;;;;;;;;;;;;;;;;;;5021949;28;20372;-74
2022/10/04 04:41:53;;;;;;;;;;;;;;;;;;4973226;28;19914;-74
2022/10/04 04:44:19;;;;;;;;;;;;;;;;;;4973979;28;20010;-72
2022/10/04 04:46:44;;;;;;;;;;;;;;;;;;4973123;28;19921;-72
2022/10/04 04:49:09;;;;;;;;;;;;;;;;;;4973856;28;19925;-72
2022/10/04 04:51:34;;;;;;;;;;;;;;;;;;4973381;28;19914;-72
2022/10/04 04:53:59;;;;;;;;;;;;;;;;;;4972032;28;19961;-72
2022/10/04 04:56:24;;;;;;;;;;;;;;;;;;4973786;28;19915;-72
2022/10/04 04:58:50;;;;;;;;;;;;;;;;;;4973255;28;20278;-72
2022/10/04 05:01:15;;;;;;;;;;;;;;;;;;4971419;28;19918;-71
2022/10/04 05:03:40;;;;;;;;;;;;;;;;;;4971916;28;20009;-71
2022/10/04 05:06:06;;;;;;;;;;;;;;;;;;4974799;28;19957;-71
2022/10/04 05:08:31;;;;;;;;;;;;;;;;;;4972963;28;20428;-72
2022/10/04 05:10:56;;;;;;;;;;;;;;;;;;4973038;28;19929;-72
2022/10/04 05:13:21;;;;;;;;;;;;;;;;;;4971996;28;19914;-72
2022/10/04 05:15:47;;;;;;;;;;;;;;;;;;4991343;28;19917;-72
2022/10/04 05:18:16;;;;;;;;;;;;;;;;;;5014387;28;19921;-72
2022/10/04 05:20:42;;;;;;;;;;;;;;;;;;5014304;28;19937;-72
2022/10/04 05:23:07;;;;;;;;;;;;;;;;;;5015606;28;19914;-72
2022/10/04 05:25:32;;;;;;;;;;;;;;;;;;5015074;28;19924;-72
2022/10/04 05:27:58;;;;;;;;;;;;;;;;;;5014025;28;19914;-72
2022/10/04 05:30:23;;;;;;;;;;;;;;;;;;5017396;28;19913;-72
2022/10/04 05:32:48;;;;;;;;;;;;;;;;;;5014700;28;19913;-72
2022/10/04 05:35:13;;;;;;;;;;;;;;;;;;5015474;28;19964;-72
2022/10/04 05:37:38;;;;;;;;;;;;;;;;;;5009836;28;19913;-72
2022/10/04 05:40:03;;;;;;;;;;;;;;;;;;5002943;28;19913;-72
2022/10/04 05:42:29;;;;;;;;;;;;;;;;;;5014274;28;19925;-72
2022/10/04 05:44:54;;;;;;;;;;;;;;;;;;5010618;28;19956;-72
2022/10/04 05:47:22;;;;;;;;;;;;;;;;;;5012774;28;19913;-72
2022/10/04 05:49:47;;;;;;;;;;;;;;;;;;5012922;28;19921;-72
2022/10/04 05:52:13;;;;;;;;;;;;;;;;;;5014616;28;19996;-72
2022/10/04 05:54:38;;;;;;;;;;;;;;;;;;5019113;28;20366;-71
2022/10/04 05:57:03;;;;;;;;;;;;;;;;;;5015013;28;19937;-71
2022/10/04 05:59:28;;;;;;;;;;;;;;;;;;5013184;28;19917;-72
2022/10/04 06:01:53;;;;;;;;;;;;;;;;;;5014739;28;19964;-72
2022/10/04 06:04:18;;;;;;;;;;;;;;;;;;5013870;28;19914;-72
2022/10/04 06:06:43;;;;;;;;;;;;;;;;;;5017216;28;19916;-72
2022/10/04 06:09:08;;;;;;;;;;;;;;;;;;5014993;28;19910;-72
2022/10/04 06:11:34;;;;;;;;;;;;;;;;;;5015087;28;19910;-72
2022/10/04 06:13:59;;;;;;;;;;;;;;;;;;5016115;28;19920;-72
2022/10/04 06:16:24;;;;;;;;;;;;;;;;;;5013490;28;19921;-72
2022/10/04 06:18:49;;;;;;;;;;;;;;;;;;5013591;28;19924;-71
2022/10/04 06:21:14;;;;;;;;;;;;;;;;;;5012997;28;19960;-72
2022/10/04 06:23:39;;;;;;;;;;;;;;;;;;5014843;28;20369;-72
2022/10/04 06:26:04;;;;;;;;;;;;;;;;;;5014113;28;20000;-71
2022/10/04 06:28:29;;;;;;;;;;;;;;;;;;5013577;28;19972;-71
2022/10/04 06:30:54;;;;;;;;;;;;;;;;;;5013104;28;19953;-72
2022/10/04 06:33:20;;;;;;;;;;;;;;;;;;5013300;28;19964;-72
2022/10/04 06:35:45;;;;;;;;;;;;;;;;;;5013331;28;19909;-72
2022/10/04 06:38:10;;;;;;;;;;;;;;;;;;5013789;28;19921;-72
2022/10/04 06:40:35;;;;;;;;;;;;;;;;;;5013968;28;19909;-72
2022/10/04 06:43:00;;;;;;;;;;;;;;;;;;5014221;28;19920;-72
2022/10/04 06:45:26;;;;;;;;;;;;;;;;;;5013427;28;19913;-72
2022/10/04 06:47:53;;;;;;;;;;;;;;;;;;5012470;28;19928;-72
2022/10/04 06:50:18;;;;;;;;;;;;;;;;;;5014086;28;20284;-72
2022/10/04 06:52:43;;;;;;;;;;;;;;;;;;5013921;28;20249;-72
2022/10/04 06:55:08;;;;;;;;;;;;;;;;;;5012934;28;20384;-72
2022/10/04 06:57:34;;;;;;;;;;;;;;;;;;5013683;28;19910;-72
2022/10/04 06:59:59;;;;;;;;;;;;;;;;;;5014825;28;19967;-72
2022/10/04 07:02:25;;;;;;;;;;;;;;;;;;5013549;28;19949;-72
2022/10/04 07:04:50;;;;;;;;;;;;;;;;;;5012159;28;19921;-72
2022/10/04 07:07:34;;;;;;;;;;;;;;;;;;5013238;28;19968;-72
2022/10/04 07:09:59;;;;;;;;;;;;;;;;;;5013594;28;19949;-72
2022/10/04 07:12:24;;;;;;;;;;;;;;;;;;5013593;28;19961;-72
2022/10/04 07:14:49;;;;;;;;;;;;;;;;;;5011269;28;19913;-72
2022/10/04 07:17:14;;;;;;;;;;;;;;;;;;5013199;28;20359;-72
2022/10/04 07:19:40;;;;;;;;;;;;;;;;;;5013344;28;19922;-72
2022/10/04 07:22:05;;;;;;;;;;;;;;;;;;5013774;28;19960;-72
2022/10/04 07:24:31;;;;;;;;;;;;;;;;;;5013142;28;20328;-72
2022/10/04 07:26:56;;;;;;;;;;;;;;;;;;5013175;28;20439;-72
2022/10/04 07:29:21;;;;;;;;;;;;;;;;;;5013868;28;20153;-72
2022/10/04 07:31:46;;;;;;;;;;;;;;;;;;5013002;28;20051;-72
2022/10/04 07:34:12;;;;;;;;;;;;;;;;;;5012604;28;20296;-72
2022/10/04 07:36:38;;;;;;;;;;;;;;;;;;5013070;28;20293;-72
2022/10/04 07:39:03;;;;;;;;;;;;;;;;;;5013106;28;19913;-72
2022/10/04 07:41:28;;;;;;;;;;;;;;;;;;5013312;28;20381;-72
2022/10/04 07:43:54;;;;;;;;;;;;;;;;;;5011586;28;19914;-72
2022/10/04 07:46:20;;;;;;;;;;;;;;;;;;5013103;28;19944;-72
2022/10/04 07:48:48;;;;;;;;;;;;;;;;;;5012707;28;20393;-72
2022/10/04 07:51:13;;;;;;;;;;;;;;;;;;5012713;28;19913;-72
2022/10/04 07:53:38;;;;;;;;;;;;;;;;;;5012793;28;19917;-72
2022/10/04 07:56:03;;;;;;;;;;;;;;;;;;5011610;28;19996;-72
2022/10/04 07:58:28;;;;;;;;;;;;;;;;;;5012322;28;19922;-72
2022/10/04 08:00:53;;;;;;;;;;;;;;;;;;5022692;28;19913;-72
2022/10/04 08:03:19;;;;;;;;;;;;;;;;;;5031125;28;20414;-72
2022/10/04 08:05:44;;;;;;;;;;;;;;;;;;5014376;28;20381;-72
2022/10/04 08:08:09;;;;;;;;;;;;;;;;;;5012869;28;19917;-72
2022/10/04 08:10:34;;;;;;;;;;;;;;;;;;5012791;28;19921;-72
2022/10/04 08:12:59;;;;;;;;;;;;;;;;;;5012412;28;19917;-72
2022/10/04 08:15:24;;;;;;;;;;;;;;;;;;5009978;28;19917;-72
2022/10/04 08:17:50;;;;;;;;;;;;;;;;;;5012239;28;19928;-72
2022/10/04 08:20:15;;;;;;;;;;;;;;;;;;5012642;28;19992;-72
2022/10/04 08:22:40;;;;;;;;;;;;;;;;;;5011888;28;19909;-72
2022/10/04 08:25:05;;;;;;;;;;;;;;;;;;5011580;28;19921;-72
2022/10/04 08:27:30;;;;;;;;;;;;;;;;;;5011630;28;19913;-72
2022/10/04 08:29:57;;;;;;;;;;;;;;;;;;5010845;28;19914;-72
2022/10/04 08:32:22;;;;;;;;;;;;;;;;;;5012502;28;19914;-72
2022/10/04 08:34:47;;;;;;;;;;;;;;;;;;5012142;28;20426;-72
2022/10/04 08:37:12;;;;;;;;;;;;;;;;;;5011447;28;19918;-72
2022/10/04 08:39:37;;;;;;;;;;;;;;;;;;5012336;28;19914;-72
2022/10/04 08:42:03;;;;;;;;;;;;;;;;;;5012120;28;19913;-72
2022/10/04 08:44:28;;;;;;;;;;;;;;;;;;5014147;28;19914;-73
2022/10/04 08:46:54;;;;;;;;;;;;;;;;;;5015300;28;19960;-73
2022/10/04 08:49:20;;;;;;;;;;;;;;;;;;5015682;28;20365;-72
2022/10/04 08:51:45;;;;;;;;;;;;;;;;;;5015681;28;19909;-73
2022/10/04 08:54:10;;;;;;;;;;;;;;;;;;5014867;28;19948;-73
2022/10/04 08:56:35;;;;;;;;;;;;;;;;;;5015553;28;19909;-73
2022/10/04 08:59:01;;;;;;;;;;;;;;;;;;5015506;28;19917;-72
2022/10/04 09:01:26;;;;;;;;;;;;;;;;;;5015094;28;20004;-72
2022/10/04 09:03:56;;;;;;;;;;;;;;;;;;5015439;28;19921;-72
2022/10/04 09:06:21;;;;;;;;;;;;;;;;;;5015287;28;19917;-72
2022/10/04 09:08:46;;;;;;;;;;;;;;;;;;5015699;28;19910;-72
2022/10/04 09:11:11;;;;;;;;;;;;;;;;;;5015176;28;19917;-72
2022/10/04 09:13:36;;;;;;;;;;;;;;;;;;5015454;28;19913;-72
2022/10/04 09:16:01;;;;;;;;;;;;;;;;;;5013912;28;20307;-72
2022/10/04 09:18:28;;;;;;;;;;;;;;;;;;5015099;28;19918;-72
2022/10/04 09:20:53;;;;;;;;;;;;;;;;;;5014622;28;19917;-72
2022/10/04 09:23:21;;;;;;;;;;;;;;;;;;5014916;28;19920;-72
2022/10/04 09:25:47;;;;;;;;;;;;;;;;;;5015047;28;19996;-72
2022/10/04 09:28:12;;;;;;;;;;;;;;;;;;5015028;28;19956;-72
2022/10/04 09:30:37;;;;;;;;;;;;;;;;;;5014431;28;20030;-72
2022/10/04 09:33:02;;;;;;;;;;;;;;;;;;5014863;28;19920;-72
2022/10/04 09:35:30;;;;;;;;;;;;;;;;;;5014752;28;19917;-72
2022/10/04 09:37:55;;;;;;;;;;;;;;;;;;5014408;28;20273;-73
2022/10/04 09:40:20;;;;;;;;;;;;;;;;;;5015062;28;20451;-73
2022/10/04 09:42:45;;;;;;;;;;;;;;;;;;5014844;28;19913;-72
2022/10/04 09:45:10;;;;;;;;;;;;;;;;;;5014554;28;19918;-72
2022/10/04 09:47:40;;;;;;;;;;;;;;;;;;5013084;28;19920;-72
2022/10/04 09:50:06;;;;;;;;;;;;;;;;;;5014417;28;19909;-71
2022/10/04 09:52:31;;;;;;;;;;;;;;;;;;5016780;28;19924;-72
2022/10/04 09:54:56;;;;;;;;;;;;;;;;;;5013384;28;19916;-72
2022/10/04 09:57:26;;;;;;;;;;;;;;;;;;5014019;28;19917;-72
2022/10/04 09:59:53;;;;;;;;;;;;;;;;;;5014325;28;20008;-71
2022/10/04 10:02:19;;;;;;;;;;;;;;;;;;5016929;28;19913;-72
2022/10/04 10:04:44;;;;;;;;;;;;;;;;;;5014384;28;19916;-71
2022/10/04 10:07:09;;;;;;;;;;;;;;;;;;5013674;28;20348;-71
2022/10/04 10:15:02;;;;;;;;;;;;;;;;;;5014145;28;19928;-71
2022/10/04 10:17:27;;;;;;;;;;;;;;;;;;5013082;28;20346;-71
2022/10/04 10:19:52;;;;;;;;;;;;;;;;;;5014261;28;20490;-72
2022/10/04 10:22:17;;;;;;;;;;;;;;;;;;5014151;28;20373;-71
2022/10/04 10:24:42;;;;;;;;;;;;;;;;;;5013767;28;20284;-71
2022/10/04 10:27:07;;;;;;;;;;;;;;;;;;5013046;28;19913;-73
2022/10/04 10:29:33;;;;;;;;;;;;;;;;;;5013748;28;19953;-73
2022/10/04 10:31:58;;;;;;;;;;;;;;;;;;5014105;28;19920;-72
2022/10/04 10:34:23;;;;;;;;;;;;;;;;;;5013594;28;19925;-71
2022/10/04 10:36:48;;;;;;;;;;;;;;;;;;5013405;28;19913;-74
2022/10/04 10:39:14;;;;;;;;;;;;;;;;;;5013763;28;19920;-71
2022/10/04 10:41:39;;;;;;;;;;;;;;;;;;5013628;28;19910;-71
2022/10/04 10:44:06;;;;;;;;;;;;;;;;;;5013694;28;19920;-71
2022/10/04 10:46:31;;;;;;;;;;;;;;;;;;5012892;28;19924;-71
2022/10/04 10:48:56;;;;;;;;;;;;;;;;;;5013763;28;19910;-71
2022/10/04 10:51:22;;;;;;;;;;;;;;;;;;5013596;28;20288;-71
2022/10/04 10:53:47;;;;;;;;;;;;;;;;;;5012983;28;19953;-71
2022/10/04 10:56:12;;;;;;;;;;;;;;;;;;5013458;28;19985;-72
2022/10/04 10:58:37;;;;;;;;;;;;;;;;;;5013405;28;20324;-71
2022/10/04 11:01:02;;;;;;;;;;;;;;;;;;5012814;28;20475;-71
2022/10/04 11:03:29;;;;;;;;;;;;;;;;;;5012646;28;19917;-72
2022/10/04 11:05:56;;;;;;;;;;;;;;;;;;5012875;28;19909;-71
2022/10/04 11:08:22;;;;;;;;;;;;;;;;;;5017785;28;19922;-73
2022/10/04 11:10:47;;;;;;;;;;;;;;;;;;5013509;28;20273;-73
2022/10/04 11:13:12;;;;;;;;;;;;;;;;;;5012565;28;19914;-72
2022/10/04 11:15:37;;;;;;;;;;;;;;;;;;5013156;28;19980;-73
2022/10/04 11:18:02;;;;;;;;;;;;;;;;;;5013137;28;20270;-73
2022/10/04 11:20:27;;;;;;;;;;;;;;;;;;5013325;28;20329;-74
2022/10/04 11:22:52;;;;;;;;;;;;;;;;;;5012413;28;20380;-72
2022/10/04 11:25:17;;;;;;;;;;;;;;;;;;5013067;28;20324;-72
2022/10/04 11:27:42;;;;;;;;;;;;;;;;;;5013044;28;20353;-72
2022/10/04 11:30:08;;;;;;;;;;;;;;;;;;5013047;28;19916;-71
2022/10/04 11:32:34;;;;;;;;;;;;;;;;;;5011729;28;19913;-73
2022/10/04 11:34:59;;;;;;;;;;;;;;;;;;5012753;28;19960;-72
2022/10/04 11:37:25;;;;;;;;;;;;;;;;;;5012936;28;19910;-74
2022/10/04 11:39:50;;;;;;;;;;;;;;;;;;5012046;28;19918;-73
2022/10/04 11:42:16;;;;;;;;;;;;;;;;;;5011324;28;19959;-72
2022/10/04 11:44:42;;;;;;;;;;;;;;;;;;5012726;28;19914;-74
2022/10/04 11:47:08;;;;;;;;;;;;;;;;;;5011869;28;19924;-73
2022/10/04 11:49:34;;;;;;;;;;;;;;;;;;5009506;28;20050;-73
2022/10/04 11:51:59;;;;;;;;;;;;;;;;;;5012476;28;20004;-73
2022/10/04 11:54:26;;;;;;;;;;;;;;;;;;5012391;28;19921;-74
2022/10/04 11:56:55;;;;;;;;;;;;;;;;;;5015302;28;20317;-72
2022/10/04 11:59:20;;;;;;;;;;;;;;;;;;5012555;28;19921;-74
2022/10/04 12:01:45;;;;;;;;;;;;;;;;;;5014498;28;19989;-72
2022/10/04 12:04:10;;;;;;;;;;;;;;;;;;5032566;28;19936;-72
2022/10/04 12:06:36;;;;;;;;;;;;;;;;;;5032246;28;20284;-73
2022/10/04 12:09:04;;;;;;;;;;;;;;;;;;5010920;28;20004;-74
2022/10/04 12:12:35;;;;;;;;;;;;;;;;;;5012442;28;19913;-73
2022/10/04 12:14:16;;;;;;;;;;;;;;;;;;5012238;28;19910;-73
2022/10/04 12:16:42;;;;;;;;;;;;;;;;;;5011123;28;20400;-73
2022/10/04 12:19:07;;;;;;;;;;;;;;;;;;5014464;28;19913;-72
2022/10/04 12:21:33;;;;;;;;;;;;;;;;;;5015660;28;19914;-72
2022/10/04 12:23:58;;;;;;;;;;;;;;;;;;5016310;28;19914;-72
2022/10/04 12:26:31;;;;;;;;;;;;;;;;;;5015944;28;19910;-74
2022/10/04 12:28:56;;;;;;;;;;;;;;;;;;5018264;28;19910;-76
2022/10/04 12:31:22;;;;;;;;;;;;;;;;;;5016316;28;19955;-74
2022/10/04 12:33:47;;;;;;;;;;;;;;;;;;5014775;28;20317;-74
2022/10/04 12:36:13;;;;;;;;;;;;;;;;;;5016614;28;19920;-73
2022/10/04 12:38:38;;;;;;;;;;;;;;;;;;5015311;28;19960;-73
2022/10/04 12:41:03;;;;;;;;;;;;;;;;;;5016275;28;19910;-74
2022/10/04 12:43:29;;;;;;;;;;;;;;;;;;5015949;28;19913;-72
2022/10/04 12:45:55;;;;;;;;;;;;;;;;;;5016072;28;19917;-73
2022/10/04 12:48:20;;;;;;;;;;;;;;;;;;5016302;28;19913;-74
2022/10/04 12:50:45;;;;;;;;;;;;;;;;;;5016155;28;20373;-74
2022/10/04 12:53:11;;;;;;;;;;;;;;;;;;5015876;28;19913;-73
2022/10/04 12:55:36;;;;;;;;;;;;;;;;;;5015427;28;20274;-73
2022/10/04 12:58:01;;;;;;;;;;;;;;;;;;5014359;28;19930;-72
2022/10/04 13:00:27;;;;;;;;;;;;;;;;;;5015704;28;19959;-73
2022/10/04 13:02:53;;;;;;;;;;;;;;;;;;5014022;28;20013;-73
2022/10/04 13:05:18;;;;;;;;;;;;;;;;;;5015509;28;20028;-72
2022/10/04 13:07:43;;;;;;;;;;;;;;;;;;5015208;28;20008;-73
2022/10/04 13:10:08;;;;;;;;;;;;;;;;;;5015323;28;19999;-73
2022/10/04 13:12:33;;;;;;;;;;;;;;;;;;5015548;28;20397;-74
2022/10/04 13:14:59;;;;;;;;;;;;;;;;;;5015469;28;19917;-74
2022/10/04 13:17:24;;;;;;;;;;;;;;;;;;5014170;28;19914;-73
2022/10/04 13:19:51;;;;;;;;;;;;;;;;;;5015059;28;20000;-74
2022/10/04 13:22:17;;;;;;;;;;;;;;;;;;5015304;28;19917;-72
2022/10/04 13:24:54;;;;;;;;;;;;;;;;;;5014961;28;19914;-74
2022/10/04 13:27:19;;;;;;;;;;;;;;;;;;5014523;28;19917;-73
2022/10/04 13:29:44;;;;;;;;;;;;;;;;;;5013865;28;20134;-73
2022/10/04 13:32:09;;;;;;;;;;;;;;;;;;5013808;28;19913;-74
2022/10/04 13:34:35;;;;;;;;;;;;;;;;;;4995338;28;19993;-71
2022/10/04 13:37:00;;;;;;;;;;;;;;;;;;4997235;28;19988;-74
2022/10/04 13:39:25;;;;;;;;;;;;;;;;;;5014764;28;19918;-73
2022/10/04 13:41:50;;;;;;;;;;;;;;;;;;5015336;28;19910;-73
2022/10/04 13:44:16;;;;;;;;;;;;;;;;;;5014992;28;19910;-74
2022/10/04 13:46:41;;;;;;;;;;;;;;;;;;5015122;28;20396;-74
2022/10/04 13:49:06;;;;;;;;;;;;;;;;;;5013039;28;20253;-73
2022/10/04 13:51:32;;;;;;;;;;;;;;;;;;5014897;28;20369;-73
2022/10/04 13:56:41;;;;;;;;;;;;;;;;;;5014527;28;19916;-73
2022/10/04 13:59:06;;;;;;;;;;;;;;;;;;5015933;28;19917;-73
2022/10/04 14:01:31;;;;;;;;;;;;;;;;;;5014349;28;19916;-74
2022/10/04 14:03:56;;;;;;;;;;;;;;;;;;5013365;28;20433;-72
2022/10/04 14:06:21;;;;;;;;;;;;;;;;;;5017003;28;19916;-73
2022/10/04 14:08:47;;;;;;;;;;;;;;;;;;5013038;28;19917;-73
2022/10/04 14:11:12;;;;;;;;;;;;;;;;;;5014679;28;19952;-74
2022/10/04 14:13:37;;;;;;;;;;;;;;;;;;5013900;28;20016;-73
2022/10/04 14:16:02;;;;;;;;;;;;;;;;;;5014163;28;19917;-73
2022/10/04 14:18:27;;;;;;;;;;;;;;;;;;5013056;28;19928;-73
2022/10/04 14:20:53;;;;;;;;;;;;;;;;;;5014022;28;20288;-73
2022/10/04 14:23:19;;;;;;;;;;;;;;;;;;5013901;28;19916;-72
2022/10/04 14:25:45;;;;;;;;;;;;;;;;;;5013943;28;19910;-73
2022/10/04 14:28:10;;;;;;;;;;;;;;;;;;5013658;28;19921;-74
2022/10/04 14:30:36;;;;;;;;;;;;;;;;;;5013813;28;19936;-71
2022/10/04 14:33:01;;;;;;;;;;;;;;;;;;5012022;28;19914;-73
2022/10/04 14:35:26;;;;;;;;;;;;;;;;;;5013999;28;19920;-73
2022/10/04 14:37:52;;;;;;;;;;;;;;;;;;5013717;28;19920;-73
2022/10/04 14:40:17;;;;;;;;;;;;;;;;;;5012691;28;19918;-73
2022/10/04 14:42:43;;;;;;;;;;;;;;;;;;5013426;28;19909;-74
2022/10/04 14:45:10;;;;;;;;;;;;;;;;;;5012659;28;20012;-72
2022/10/04 14:47:35;;;;;;;;;;;;;;;;;;5012981;28;20012;-73
2022/10/04 14:50:01;;;;;;;;;;;;;;;;;;5014633;28;20304;-73
2022/10/04 14:52:26;;;;;;;;;;;;;;;;;;5013713;28;19909;-72
2022/10/04 14:54:51;;;;;;;;;;;;;;;;;;5012862;28;20396;-72
2022/10/04 14:57:19;;;;;;;;;;;;;;;;;;5013290;28;19914;-73
2022/10/04 14:59:44;;;;;;;;;;;;;;;;;;5013448;28;19945;-74
2022/10/04 15:02:09;;;;;;;;;;;;;;;;;;5013411;28;19909;-73
2022/10/04 15:04:35;;;;;;;;;;;;;;;;;;5013137;28;19913;-73
2022/10/04 15:07:00;;;;;;;;;;;;;;;;;;5012787;28;20417;-74
2022/10/04 15:09:25;;;;;;;;;;;;;;;;;;5006651;28;19917;-74
2022/10/04 15:11:53;;;;;;;;;;;;;;;;;;5013262;28;19917;-73
2022/10/04 15:14:19;;;;;;;;;;;;;;;;;;5009846;28;19961;-74
2022/10/04 15:16:44;;;;;;;;;;;;;;;;;;5014287;28;19960;-73
2022/10/04 15:19:10;;;;;;;;;;;;;;;;;;5000906;28;20142;-74
2022/10/04 15:21:35;;;;;;;;;;;;;;;;;;5002955;28;19980;-74
2022/10/04 15:24:02;;;;;;;;;;;;;;;;;;5007937;28;20209;-74
2022/10/04 15:26:28;;;;;;;;;;;;;;;;;;5004447;28;19959;-73
2022/10/04 15:28:53;;;;;;;;;;;;;;;;;;5007148;28;20452;-73
2022/10/04 15:31:18;;;;;;;;;;;;;;;;;;5018762;28;19917;-74
2022/10/04 15:33:43;;;;;;;;;;;;;;;;;;5016129;28;19983;-75
2022/10/04 15:36:08;;;;;;;;;;;;;;;;;;5013206;28;19925;-74
2022/10/04 15:38:33;;;;;;;;;;;;;;;;;;5005894;28;19943;-74
2022/10/04 15:40:58;;;;;;;;;;;;;;;;;;5015056;28;20015;-74
2022/10/04 15:43:24;;;;;;;;;;;;;;;;;;5005175;28;19917;-74
2022/10/04 15:45:49;;;;;;;;;;;;;;;;;;5012751;28;20323;-74
2022/10/04 15:48:14;;;;;;;;;;;;;;;;;;5004729;28;19924;-74
2022/10/04 15:50:39;;;;;;;;;;;;;;;;;;5007899;28;20004;-74
2022/10/04 15:53:04;;;;;;;;;;;;;;;;;;5007904;28;19956;-74
2022/10/04 15:55:29;;;;;;;;;;;;;;;;;;5011201;28;19968;-74
2022/10/04 15:57:54;;;;;;;;;;;;;;;;;;5007072;28;19917;-74
2022/10/04 16:00:19;;;;;;;;;;;;;;;;;;5014645;28;19924;-74
2022/10/04 16:02:46;;;;;;;;;;;;;;;;;;5010433;28;19917;-74
2022/10/04 16:05:13;;;;;;;;;;;;;;;;;;5011366;28;19918;-74
2022/10/04 16:07:39;;;;;;;;;;;;;;;;;;5007750;28;19932;-74
2022/10/04 16:10:04;;;;;;;;;;;;;;;;;;5018162;28;19917;-74
2022/10/04 16:12:31;;;;;;;;;;;;;;;;;;5006704;28;20001;-74
2022/10/04 16:14:56;;;;;;;;;;;;;;;;;;5012740;28;19992;-74
2022/10/04 16:17:21;;;;;;;;;;;;;;;;;;5009278;28;20114;-74
2022/10/04 16:19:46;;;;;;;;;;;;;;;;;;5005669;28;20289;-74
2022/10/04 16:22:13;;;;;;;;;;;;;;;;;;5008119;28;20374;-74
2022/10/04 16:24:39;;;;;;;;;;;;;;;;;;5001647;28;20277;-74
2022/10/04 16:27:04;;;;;;;;;;;;;;;;;;5009245;28;19921;-74
2022/10/04 16:29:29;;;;;;;;;;;;;;;;;;5003294;28;19918;-74
2022/10/04 16:31:54;;;;;;;;;;;;;;;;;;5007061;28;19917;-73
2022/10/04 16:34:19;;;;;;;;;;;;;;;;;;5007313;28;20028;-74
2022/10/04 16:36:44;;;;;;;;;;;;;;;;;;5007519;28;19917;-74
2022/10/04 16:41:53;;;;;;;;;;;;;;;;;;5004513;28;19972;-74
2022/10/04 16:44:18;;;;;;;;;;;;;;;;;;5003881;28;19917;-74
2022/10/04 16:46:44;;;;;;;;;;;;;;;;;;5005966;28;19964;-74
2022/10/04 16:49:09;;;;;;;;;;;;;;;;;;5010244;28;19917;-73
2022/10/04 16:51:34;;;;;;;;;;;;;;;;;;5011066;28;20012;-73